Kuantan Airport Kuantan MY
ICAO: WMKD
IATA:
Category: Medium
Scheduled Services:

Elevation: 58 ft
TransAlt. 11000 ft.

Airport Communications:
APP:118.1
ATIS:127.5
GND:28.96
TWR:118.1

WMKD Zoom In..

If you have problems with the map follow the link
https://www.worldairports.se/pages/airport.php?
ICAO=WMKD

Runways:

(A) RW 18 length 9199 ft width 151 ft
---- / hdg 182

(B) RW 36 length 9199 ft width 151 ft
ILS 109.50 / hdg 2

Location; WMKD
Day. 14 / Time. 09.00 Zulu
* QNH: 1008
* Temperature: 27° c. 80.6°f.
* Wind from: 330° Speed 05 kn.
Dewpoint: 24° c.
Visibility: 9000 m.
Clouds: Few 1700 ft.
No significant changes expected in the near future.

WMKD 140900Z 33005KT 290V360 9000 -TSRA FEW017CB 27/24 Q1008 NOSIG


Wind From 330°
Speed 05 kn.

 
 
jpsmedia worldairports.se 2019   terms of use